This is the latest recevied weather packets stored in our database for station/object M0HPP-13. If no packets are shown the sender has not sent any weather packets the latest 1 day(s).
| Time | Temp. | Humidity | Pressure | Rain* | Wind** | Luminosity | Snow |
|---|---|---|---|---|---|---|---|
| 1778343929 | 8.33° C | 56% | 1023.9 hPa | 0 mm | - | 205 W/m² | - |
| 1778343329 | 8.89° C | 55% | 1023.9 hPa | 0 mm | - | 195 W/m² | - |
| 1778340929 | 7.78° C | 61% | 1024 hPa | 0 mm | - | 194 W/m² | - |
| 1778339129 | 7.78° C | 67% | 1024.1 hPa | 0 mm | - | 165 W/m² | - |
| 1778338529 | 7.78° C | 66% | 1024 hPa | 0 mm | - | 169 W/m² | - |
| 1778336729 | 8.89° C | 62% | 1024.1 hPa | 0 mm | - | 344 W/m² | - |
| 1778336129 | 8.33° C | 55% | 1024 hPa | 0 mm | - | 262 W/m² | - |
| 1778334929 | 12.22° C | 33% | 1024.2 hPa | 0 mm | - | 265 W/m² | - |
| 1778333129 | 11.67° C | 36% | 1024.2 hPa | 0 mm | - | 583 W/m² | - |
| 1778331329 | 10° C | 40% | 1024.1 hPa | 0 mm | - | 248 W/m² | - |
| 1778329529 | 12.22° C | 35% | 1024.2 hPa | 0 mm | - | 186 W/m² | - |
| 1778328929 | 12.78° C | 33% | 1024.2 hPa | 0 mm | - | 354 W/m² | - |
| 1778325930 | 10° C | 47% | 1024.5 hPa | 0 mm | - | 250 W/m² | - |
| 1778322329 | 10° C | 49% | 1024.5 hPa | 0 mm | - | 446 W/m² | - |
| 1778321129 | 8.89° C | 49% | 1024.4 hPa | 0 mm | - | 293 W/m² | - |
| 1778317529 | 10.56° C | 51% | 1024.2 hPa | 0 mm | - | 488 W/m² | - |
| 1778316929 | 10° C | 52% | 1024.2 hPa | 0 mm | - | 442 W/m² | - |
| 1778315729 | 10° C | 53% | 1024.2 hPa | 0 mm | - | 385 W/m² | - |
| 1778313929 | 10° C | 56% | 1024.1 hPa | 0 mm | - | 244 W/m² | - |
| 1778312129 | 9.44° C | 60% | 1024.1 hPa | 0 mm | - | 253 W/m² | - |
| 1778311529 | 8.89° C | 63% | 1024.1 hPa | 0 mm | - | 236 W/m² | - |
| 1778310329 | 8.33° C | 70% | 1024 hPa | 0 mm | - | 161 W/m² | - |
| 1778309729 | 6.67° C | 74% | 1024 hPa | 0 mm | - | 118 W/m² | - |
| 1778309129 | 6.11° C | 74% | 1024 hPa | 0 mm | - | 75 W/m² | - |
| 1778308529 | 7.78° C | 68% | 1023.8 hPa | 0 mm | - | 63 W/m² | - |
* Rain latest hour (hover to see other rain measurements)
** Current wind speed in m/s (hover to see current wind gust speed)